Cleveland, Ohio
Traffic Map
Current Weather Conditions
Cleveland, Ohio
Clear
Clear
20°
Feels Like: 20°
Wind Chill: 20° Ceiling: Unl
Heat Index: 20° Visibility: 10mi
Dew Point: 15° Wind: 8mph
Humidity: 73% Direction: 10° (N)
Pressure: 29.94in Gusts: 0mph
Raw Report DataKBKL 041153Z 01007KT 10SM CLR 20/15 A2994 RMK AO2 SLP137 T02000150 10200 20172 53015
Traffic Incident Summary
Active as of:
Severity:
Category:
InformationThere was an issue retrieving the traffic information for this location. Please try a different location or try again shortly.
Advertisements
Track Severe Weather on mobile